首页
METAR-TAF:

METAR-TAF

机场 :

诺曼·曼利国际机场

京斯敦, 牙买加

纬度: 17-56N, 经度: 076-47W, 海拔: 3米

当前天气观测

该预报发布于16分钟前的18:00 UTC
风速19节,风向南转南东
温度 32°C
湿度 67%
气压 1014 hPa
能见度10公里或以上
少量云层高于2200英尺, 积雨云.
散云层高于3400英尺

METAR: MKJP 151800Z 15019KT 9999 FEW022CB SCT034 32/25 Q1014

时间: 13:16 (18:16 UTC)

预报

该预报发布于1小时和1分钟前的17:15 UTC
预报有效从15日的 18点(UTC)到 16日的 18点(UTC)
风速22节,风向东南,有时为32节阵风
能见度10公里或以上
少量云层高于2400英尺, 积雨云.
散云层高于3500英尺
几率 40% :
短暂存在
从 15日的 18点(UTC)到 15日的 23点(UTC)
能見度: 7000
散云层高于2000英尺
散云层高于2200英尺, 积雨云.
雷暴, 雨
成为
从 16日的 01点(UTC)到 16日的 03点(UTC)
风速8节,风向东转东南
成为
从 16日的 04点(UTC)到 16日的 06点(UTC)
风速5节,风向
成为
从 16日的 13点(UTC)到 16日的 15点(UTC)
风速25节,风向东南

TAF: MKJP 151715Z 1518/1618 14022G32KT 9999 FEW024CB SCT035 PROB40 TEMPO 1518/1523 7000 TSRA SCT020 SCT022CB BECMG 1601/1603 12008KT BECMG 1604/1606 35005KT BECMG 1613/1615 14025KT

超过4000个机场的气象观测和天气预报(METAR&TAF报告)。

可查询的气象台以黄色和红色小点在地图上表示。

将鼠标移到小点上方,可查看气象台名称。

然后点击查看天气观测和预报。

如需切换地图:点击带黑十字的绿色按钮放大地图;点击带横线的绿色按钮缩小地图;或者点击绿色箭头查看邻近地区的地图。


METAR-TAF: